Time;durP1;ratioP1;P1;durP2;ratioP2;P2;SDS_P1;SDS_P2;PMS_P1;PMS_P2;Temp;Humidity;BMP_temperature;BMP_pressure;BME280_temperature;BME280_humidity;BME280_pressure;Samples;Min_cycle;Max_cycle;Signal;HPM_P1;HPM_P2
2022/03/04 00:02:20;;;;;;;20.35;10.15;;;1.00;61.50;;;;;;4961648;28;20545;-78
2022/03/04 00:04:46;;;;;;;19.58;11.02;;;1.00;61.60;;;;;;4970928;28;20130;-78
2022/03/04 00:07:11;;;;;;;21.23;11.10;;;1.00;61.70;;;;;;4968000;28;20043;-78
2022/03/04 00:09:37;;;;;;;21.63;11.35;;;1.00;61.80;;;;;;4952607;28;20077;-78
2022/03/04 00:12:03;;;;;;;23.15;11.07;;;0.90;61.70;;;;;;4953207;28;20094;-78
2022/03/04 00:14:30;;;;;;;20.35;11.48;;;0.90;61.80;;;;;;4953537;28;20309;-78
2022/03/04 00:16:55;;;;;;;23.95;12.23;;;0.90;62.00;;;;;;4942550;28;20114;-78
2022/03/04 00:19:21;;;;;;;23.45;12.05;;;0.90;62.20;;;;;;4953416;28;20062;-78
2022/03/04 00:21:48;;;;;;;23.25;12.07;;;0.90;62.20;;;;;;4939648;28;20058;-79
2022/03/04 00:24:14;;;;;;;24.52;11.80;;;0.80;62.20;;;;;;4969127;28;20042;-78
2022/03/04 00:26:40;;;;;;;21.63;10.95;;;0.80;62.20;;;;;;4951374;28;20054;-78
2022/03/04 00:29:06;;;;;;;20.15;11.13;;;0.80;62.20;;;;;;4944158;28;20042;-78
2022/03/04 00:31:32;;;;;;;22.00;11.63;;;0.70;62.20;;;;;;4929310;28;20066;-78
2022/03/04 00:33:58;;;;;;;20.02;10.88;;;0.70;62.40;;;;;;4948048;28;20040;-78
2022/03/04 00:36:24;;;;;;;23.15;12.73;;;0.70;62.50;;;;;;4953205;28;20211;-78
2022/03/04 00:38:50;;;;;;;25.65;12.38;;;0.70;62.60;;;;;;4957055;28;20043;-78
2022/03/04 00:41:19;;;;;;;19.60;11.70;;;0.60;62.60;;;;;;4952948;28;20039;-78
2022/03/04 00:43:45;;;;;;;23.45;11.32;;;0.60;62.70;;;;;;4956197;28;20053;-79
2022/03/04 00:46:11;;;;;;;23.60;11.57;;;0.60;62.80;;;;;;4960370;28;20053;-78
2022/03/04 00:48:37;;;;;;;24.63;11.60;;;0.60;62.90;;;;;;4955442;28;20049;-78
2022/03/04 00:51:03;;;;;;;21.40;11.20;;;0.60;63.10;;;;;;4968460;28;20043;-78
2022/03/04 00:53:28;;;;;;;21.45;11.40;;;0.50;63.00;;;;;;4952788;28;20055;-78
2022/03/04 00:55:54;;;;;;;22.85;11.73;;;0.50;63.10;;;;;;4951049;28;20045;-77
2022/03/04 00:58:19;;;;;;;21.75;11.43;;;0.50;63.20;;;;;;4956792;28;20064;-78
2022/03/04 01:00:45;;;;;;;20.67;11.52;;;0.50;63.20;;;;;;4970503;28;20046;-78
2022/03/04 01:03:10;;;;;;;21.63;11.48;;;0.40;63.10;;;;;;4956169;28;20038;-78
2022/03/04 01:05:37;;;;;;;22.65;12.38;;;0.40;63.20;;;;;;4958856;28;20054;-78
2022/03/04 01:08:02;;;;;;;22.95;12.23;;;0.30;63.20;;;;;;4969913;28;20034;-78
2022/03/04 01:10:28;;;;;;;23.90;11.88;;;0.30;63.30;;;;;;4962235;28;20042;-78
2022/03/04 01:12:53;;;;;;;21.05;11.23;;;0.20;63.50;;;;;;4971447;28;20039;-79
2022/03/04 01:15:19;;;;;;;23.45;12.38;;;0.10;63.60;;;;;;4976815;28;20041;-79
2022/03/04 01:17:44;;;;;;;25.08;12.52;;;0.10;63.80;;;;;;4936453;28;20126;-78
2022/03/04 01:20:10;;;;;;;23.92;12.43;;;0.10;63.90;;;;;;4945973;28;20054;-77
2022/03/04 01:22:35;;;;;;;24.27;11.90;;;0.10;63.90;;;;;;4962310;28;20059;-78
2022/03/04 01:25:01;;;;;;;28.42;12.18;;;0.10;64.00;;;;;;4951046;28;20097;-77
2022/03/04 01:27:27;;;;;;;22.98;12.32;;;0.10;64.00;;;;;;4958852;28;20221;-79
2022/03/04 01:29:52;;;;;;;23.13;12.50;;;0.10;64.10;;;;;;4974168;28;20047;-78
2022/03/04 01:32:18;;;;;;;26.52;13.23;;;0.10;64.20;;;;;;4948184;28;20696;-78
2022/03/04 01:34:44;;;;;;;23.85;12.27;;;0.00;64.20;;;;;;4942276;28;20535;-78
2022/03/04 01:37:09;;;;;;;25.50;12.43;;;0.00;64.20;;;;;;4971257;28;20495;-78
2022/03/04 01:39:35;;;;;;;22.83;12.20;;;0.00;64.30;;;;;;4946256;28;20062;-77
2022/03/04 01:42:01;;;;;;;22.73;11.52;;;-0.10;64.40;;;;;;4957188;28;21934;-77
2022/03/04 01:44:26;;;;;;;25.90;12.93;;;-0.10;64.50;;;;;;4967206;28;20042;-78
2022/03/04 01:46:52;;;;;;;22.23;11.30;;;-0.10;64.60;;;;;;4963227;28;20046;-77
2022/03/04 01:49:17;;;;;;;21.35;11.18;;;-0.10;64.70;;;;;;4956967;28;20043;-78
2022/03/04 01:51:43;;;;;;;22.27;12.85;;;-0.10;64.80;;;;;;4941488;28;20053;-77
2022/03/04 01:54:09;;;;;;;23.02;11.70;;;-0.10;64.90;;;;;;4927378;29;20055;-78
2022/03/04 01:56:34;;;;;;;26.75;13.40;;;-0.10;64.80;;;;;;4964492;28;20585;-78
2022/03/04 01:59:00;;;;;;;22.13;12.25;;;-0.10;64.90;;;;;;4965849;28;20504;-78
2022/03/04 02:01:25;;;;;;;23.88;12.65;;;-0.20;64.90;;;;;;4944883;28;20050;-78
2022/03/04 02:03:51;;;;;;;23.60;11.60;;;-0.10;65.10;;;;;;4955229;28;20038;-77
2022/03/04 02:06:17;;;;;;;22.88;12.65;;;-0.20;65.00;;;;;;4937009;28;20066;-78
2022/03/04 02:08:42;;;;;;;26.05;12.57;;;-0.20;65.20;;;;;;4938831;28;20031;-77
2022/03/04 02:11:08;;;;;;;24.50;12.50;;;-0.20;65.20;;;;;;4965754;28;20039;-77
2022/03/04 02:13:34;;;;;;;23.27;11.75;;;-0.20;65.20;;;;;;4949251;28;20111;-78
2022/03/04 02:16:00;;;;;;;27.45;13.07;;;-0.30;65.20;;;;;;4941818;28;20039;-78
2022/03/04 02:18:25;;;;;;;25.60;11.90;;;-0.30;65.30;;;;;;4958180;28;20111;-78
2022/03/04 02:20:51;;;;;;;22.75;11.57;;;-0.30;65.40;;;;;;4958999;28;20077;-78
2022/03/04 02:23:17;;;;;;;23.85;12.80;;;-0.30;65.50;;;;;;4971205;28;20044;-78
2022/03/04 02:25:48;;;;;;;22.77;11.88;;;-0.30;65.60;;;;;;4964552;28;20043;-77
2022/03/04 02:28:14;;;;;;;22.52;12.25;;;-0.40;65.60;;;;;;4945378;28;20134;-78
2022/03/04 02:30:39;;;;;;;27.90;13.38;;;-0.40;65.60;;;;;;4944422;28;20067;-78
2022/03/04 02:33:05;;;;;;;22.27;12.05;;;-0.50;65.70;;;;;;4949386;28;20035;-79
2022/03/04 02:35:32;;;;;;;26.92;11.93;;;-0.50;65.70;;;;;;4969903;28;20048;-78
2022/03/04 02:37:57;;;;;;;27.08;13.20;;;-0.50;65.90;;;;;;4959708;28;20043;-78
2022/03/04 02:40:24;;;;;;;29.88;13.55;;;-0.50;66.00;;;;;;4947904;28;20046;-77
2022/03/04 02:42:49;;;;;;;24.73;13.00;;;-0.50;66.10;;;;;;4962222;28;20039;-78
2022/03/04 02:45:15;;;;;;;27.58;13.13;;;-0.50;66.00;;;;;;4953210;28;20057;-78
2022/03/04 02:47:42;;;;;;;28.23;13.48;;;-0.60;66.10;;;;;;4958041;28;20038;-78
2022/03/04 02:50:08;;;;;;;24.67;12.88;;;-0.60;66.10;;;;;;4963552;28;20047;-78
2022/03/04 02:52:34;;;;;;;25.33;12.57;;;-0.60;66.20;;;;;;4960284;28;20372;-77
2022/03/04 02:54:59;;;;;;;25.98;12.70;;;-0.70;66.20;;;;;;4951310;28;20051;-78
2022/03/04 02:57:25;;;;;;;27.83;14.02;;;-0.70;66.30;;;;;;4974213;28;21310;-77
2022/03/04 02:59:50;;;;;;;23.17;11.63;;;-0.70;66.40;;;;;;4957901;28;20057;-77
2022/03/04 03:02:16;;;;;;;24.30;12.70;;;-0.70;66.50;;;;;;4938862;28;20389;-78
2022/03/04 03:04:41;;;;;;;29.27;13.60;;;-0.70;66.60;;;;;;4971492;28;20530;-78
2022/03/04 03:07:07;;;;;;;26.08;13.00;;;-0.70;66.60;;;;;;4973409;28;20593;-78
2022/03/04 03:09:32;;;;;;;27.48;13.10;;;-0.70;66.70;;;;;;4944234;28;20106;-78
2022/03/04 03:11:58;;;;;;;25.95;12.98;;;-0.70;66.80;;;;;;4953045;28;20043;-77
2022/03/04 03:14:23;;;;;;;27.98;12.82;;;-0.70;66.80;;;;;;4960309;28;20153;-78
2022/03/04 03:16:49;;;;;;;24.58;12.43;;;-0.70;66.90;;;;;;4959784;28;20519;-78
2022/03/04 03:19:14;;;;;;;24.15;12.02;;;-0.70;66.90;;;;;;4970267;28;20070;-78
2022/03/04 03:21:41;;;;;;;28.25;13.07;;;-0.70;67.00;;;;;;4956123;28;20079;-78
2022/03/04 03:24:06;;;;;;;21.00;11.60;;;-0.70;67.00;;;;;;4931657;28;20503;-77
2022/03/04 03:26:32;;;;;;;25.20;13.02;;;-0.70;67.00;;;;;;4964413;28;20126;-78
2022/03/04 03:28:57;;;;;;;30.42;14.63;;;-0.60;67.20;;;;;;4946169;28;20576;-78
2022/03/04 03:31:23;;;;;;;25.10;12.38;;;-0.70;67.10;;;;;;4957307;28;20035;-78
2022/03/04 03:33:48;;;;;;;28.50;13.90;;;-0.70;67.10;;;;;;4961722;28;20034;-79
2022/03/04 03:36:14;;;;;;;22.17;12.10;;;-0.70;67.20;;;;;;4956003;28;20098;-78
2022/03/04 03:38:39;;;;;;;26.50;13.35;;;-0.70;67.30;;;;;;4946661;28;20629;-77
2022/03/04 03:41:05;;;;;;;23.30;12.68;;;-0.70;67.30;;;;;;4968968;28;20074;-77
2022/03/04 03:43:30;;;;;;;25.20;13.43;;;-0.80;67.30;;;;;;4961878;28;20035;-77
2022/03/04 03:45:56;;;;;;;27.58;13.25;;;-0.70;68.20;;;;;;4980783;28;20035;-78
2022/03/04 03:48:21;;;;;;;31.67;14.38;;;-0.80;67.50;;;;;;4957196;28;20057;-78
2022/03/04 03:50:47;;;;;;;26.70;13.68;;;-0.80;67.50;;;;;;4959001;28;20095;-77
2022/03/04 03:53:12;;;;;;;25.02;12.82;;;-0.80;67.50;;;;;;4974847;28;20057;-77
2022/03/04 03:55:38;;;;;;;26.38;13.15;;;-0.90;67.60;;;;;;4951415;28;20039;-77
2022/03/04 03:58:03;;;;;;;23.20;11.27;;;-0.80;67.70;;;;;;4976305;28;20053;-78
2022/03/04 04:00:29;;;;;;;29.80;13.90;;;-0.90;67.60;;;;;;4963984;28;20047;-78
2022/03/04 04:02:54;;;;;;;29.10;13.50;;;-0.90;67.80;;;;;;4964688;28;20118;-78
2022/03/04 04:05:20;;;;;;;29.48;13.68;;;-0.90;67.80;;;;;;4964874;28;20030;-77
2022/03/04 04:07:46;;;;;;;21.83;11.65;;;-0.90;67.80;;;;;;4964914;28;20034;-77
2022/03/04 04:10:11;;;;;;;24.02;12.57;;;-1.00;67.80;;;;;;4950409;28;20126;-77
2022/03/04 04:12:37;;;;;;;27.00;12.43;;;-1.00;67.90;;;;;;4959974;28;20099;-77
2022/03/04 04:15:03;;;;;;;28.08;13.73;;;-1.00;68.10;;;;;;4946557;28;20039;-77
2022/03/04 04:17:28;;;;;;;29.30;13.65;;;-1.00;68.00;;;;;;4961601;28;20381;-77
2022/03/04 04:19:54;;;;;;;25.40;12.80;;;-1.00;68.10;;;;;;4962448;28;20034;-78
2022/03/04 04:22:20;;;;;;;26.10;12.27;;;-1.10;68.10;;;;;;4973567;28;20110;-78
2022/03/04 04:24:46;;;;;;;30.27;15.95;;;-1.10;68.10;;;;;;4937968;28;20043;-77
2022/03/04 04:27:11;;;;;;;30.48;15.68;;;-1.10;68.20;;;;;;4961400;28;20425;-77
2022/03/04 04:29:37;;;;;;;29.25;13.68;;;-1.10;68.20;;;;;;4944638;28;20042;-77
2022/03/04 04:32:03;;;;;;;29.48;14.13;;;-1.10;68.20;;;;;;4945236;28;20050;-77
2022/03/04 04:34:28;;;;;;;27.02;13.50;;;-1.10;68.40;;;;;;4946257;28;20038;-78
2022/03/04 04:36:54;;;;;;;27.27;14.15;;;-1.20;68.30;;;;;;4971239;28;20773;-77
2022/03/04 04:39:19;;;;;;;32.60;15.45;;;-1.20;68.40;;;;;;4946807;28;20543;-78
2022/03/04 04:41:45;;;;;;;32.75;14.65;;;-1.20;68.40;;;;;;4963318;28;20049;-78
2022/03/04 04:44:11;;;;;;;27.67;13.95;;;-1.20;68.50;;;;;;4965830;28;20079;-77
2022/03/04 04:46:36;;;;;;;26.75;13.27;;;-1.20;68.60;;;;;;4969848;28;20051;-77
2022/03/04 04:49:02;;;;;;;27.45;14.05;;;-1.30;68.60;;;;;;4976514;28;20054;-77
2022/03/04 04:51:27;;;;;;;30.80;15.15;;;-1.30;68.70;;;;;;4956491;28;20035;-78
2022/03/04 04:53:53;;;;;;;29.00;14.10;;;-1.30;68.80;;;;;;4967649;28;20066;-77
2022/03/04 04:56:19;;;;;;;30.80;15.77;;;-1.30;68.80;;;;;;4953460;28;20501;-78
2022/03/04 04:58:45;;;;;;;31.27;15.13;;;-1.30;68.90;;;;;;4956484;28;20054;-77
2022/03/04 05:01:11;;;;;;;34.63;15.85;;;-1.30;69.00;;;;;;4967049;28;20075;-77
2022/03/04 05:03:36;;;;;;;26.80;13.73;;;-1.30;69.10;;;;;;4960660;28;20034;-77
2022/03/04 05:06:02;;;;;;;27.80;14.35;;;-1.40;69.00;;;;;;4946896;28;20032;-77
2022/03/04 05:08:29;;;;;;;31.77;16.45;;;-1.40;69.10;;;;;;4948322;28;20031;-77
2022/03/04 05:10:58;;;;;;;30.08;15.10;;;-1.30;69.20;;;;;;4967433;28;20039;-77
2022/03/04 05:13:24;;;;;;;31.48;15.40;;;-1.40;69.20;;;;;;4962172;28;20037;-77
2022/03/04 05:15:49;;;;;;;34.42;15.55;;;-1.40;69.20;;;;;;4944040;28;20030;-77
2022/03/04 05:18:15;;;;;;;28.58;14.07;;;-1.40;69.30;;;;;;4942174;28;20059;-77
2022/03/04 05:20:41;;;;;;;35.63;15.43;;;-1.40;69.30;;;;;;4954022;28;20035;-75
2022/03/04 05:23:06;;;;;;;31.90;14.25;;;-1.50;69.40;;;;;;4975739;28;20031;-77
2022/03/04 05:25:32;;;;;;;34.28;15.75;;;-1.50;69.40;;;;;;4922952;29;20039;-77
2022/03/04 05:27:57;;;;;;;32.05;14.35;;;-1.50;69.50;;;;;;4951935;28;20496;-77
2022/03/04 05:30:23;;;;;;;33.90;16.17;;;-1.50;69.60;;;;;;4959535;28;20590;-77
2022/03/04 05:32:48;;;;;;;33.00;15.52;;;-1.50;69.70;;;;;;4965857;28;20044;-78
2022/03/04 05:35:14;;;;;;;31.45;15.30;;;-1.60;69.70;;;;;;4965039;28;20058;-77
2022/03/04 05:37:39;;;;;;;28.45;14.43;;;-1.60;69.70;;;;;;4973000;28;20046;-77
2022/03/04 05:40:05;;;;;;;33.22;15.07;;;-1.60;69.70;;;;;;4965316;28;20531;-78
2022/03/04 05:42:31;;;;;;;33.55;16.02;;;-1.60;69.80;;;;;;4949521;28;20066;-77
2022/03/04 05:44:57;;;;;;;30.67;14.77;;;-1.60;69.90;;;;;;4952544;28;20553;-77
2022/03/04 05:47:22;;;;;;;29.88;15.35;;;-1.60;70.00;;;;;;4961007;28;20035;-78
2022/03/04 05:49:48;;;;;;;33.92;15.32;;;-1.70;69.90;;;;;;4954249;28;20031;-77
2022/03/04 05:52:13;;;;;;;33.67;16.13;;;-1.70;70.00;;;;;;4945045;28;20041;-77
2022/03/04 05:54:39;;;;;;;36.08;16.27;;;-1.70;70.10;;;;;;4946462;28;20516;-78
2022/03/04 05:57:05;;;;;;;35.95;15.05;;;-1.70;70.10;;;;;;4959410;28;20043;-77
2022/03/04 05:59:30;;;;;;;33.40;16.17;;;-1.70;70.20;;;;;;4956306;28;20076;-77
2022/03/04 06:01:56;;;;;;;30.30;15.15;;;-1.70;70.20;;;;;;4950211;28;20048;-77
2022/03/04 06:04:21;;;;;;;32.53;15.70;;;-1.70;70.30;;;;;;4924912;28;20099;-77
2022/03/04 06:06:47;;;;;;;27.95;13.57;;;-1.70;70.30;;;;;;4933663;28;20027;-78
2022/03/04 06:09:12;;;;;;;33.53;16.02;;;-1.70;70.30;;;;;;4947080;28;20089;-77
2022/03/04 06:11:38;;;;;;;33.97;16.95;;;-1.70;70.40;;;;;;4936914;28;20035;-76
2022/03/04 06:14:03;;;;;;;29.67;14.55;;;-1.80;70.40;;;;;;4966606;28;20050;-77
2022/03/04 06:16:29;;;;;;;40.92;18.45;;;-1.80;70.40;;;;;;4950463;28;20058;-77
2022/03/04 06:18:55;;;;;;;35.92;18.08;;;-1.80;70.50;;;;;;4954826;28;20039;-77
2022/03/04 06:21:21;;;;;;;34.72;16.95;;;-1.80;70.60;;;;;;4943428;28;20098;-77
2022/03/04 06:23:49;;;;;;;37.00;17.08;;;-1.80;70.60;;;;;;4946477;28;20070;-77
2022/03/04 06:26:15;;;;;;;40.50;17.42;;;-1.80;70.70;;;;;;4943571;28;20176;-78
2022/03/04 06:28:40;;;;;;;39.60;16.80;;;-1.80;70.70;;;;;;4950049;28;20103;-77
2022/03/04 06:31:06;;;;;;;37.83;17.65;;;-1.80;70.80;;;;;;4962315;28;20042;-77
2022/03/04 06:33:35;;;;;;;36.53;16.77;;;-1.80;70.80;;;;;;4919514;29;20035;-78
2022/03/04 06:36:06;;;;;;;37.10;17.85;;;-1.80;70.90;;;;;;4949692;28;20065;-77
2022/03/04 06:38:32;;;;;;;32.53;16.77;;;-1.80;71.80;;;;;;4947365;28;20043;-76
2022/03/04 06:40:58;;;;;;;35.60;17.30;;;-1.80;71.00;;;;;;4965030;28;20118;-77
2022/03/04 06:43:23;;;;;;;36.25;16.95;;;-1.70;71.10;;;;;;4943126;28;20070;-78
2022/03/04 06:45:49;;;;;;;41.17;20.48;;;-1.70;71.20;;;;;;4950079;28;20042;-77
2022/03/04 06:48:15;;;;;;;38.97;19.05;;;-1.70;71.20;;;;;;4946944;28;20341;-77
2022/03/04 06:50:41;;;;;;;45.67;22.35;;;-1.70;71.20;;;;;;4953842;28;20047;-77
2022/03/04 06:53:06;;;;;;;36.72;18.77;;;-1.60;71.40;;;;;;4969323;28;20051;-79
2022/03/04 06:55:32;;;;;;;40.08;18.15;;;-1.60;71.40;;;;;;4953349;28;20348;-77
2022/03/04 06:57:58;;;;;;;32.05;15.40;;;-1.60;71.40;;;;;;4956319;28;20187;-78
2022/03/04 07:00:25;;;;;;;38.92;17.83;;;-1.50;71.50;;;;;;4957192;28;20050;-76
2022/03/04 07:02:51;;;;;;;36.47;17.92;;;-1.50;71.50;;;;;;4942014;28;20055;-78
2022/03/04 07:05:16;;;;;;;37.25;16.95;;;-1.50;71.60;;;;;;4966185;28;20057;-78
2022/03/04 07:07:42;;;;;;;38.38;18.10;;;-1.40;71.60;;;;;;4961395;28;20324;-79
2022/03/04 07:10:08;;;;;;;42.67;19.70;;;-1.30;71.70;;;;;;4933513;28;20136;-79
2022/03/04 07:12:34;;;;;;;41.83;20.05;;;-1.30;71.70;;;;;;4963086;28;20039;-77
2022/03/04 07:14:59;;;;;;;40.42;21.33;;;-1.20;71.70;;;;;;4943807;28;20039;-78
2022/03/04 07:17:25;;;;;;;43.33;21.48;;;-1.20;71.70;;;;;;4928945;28;20110;-77
2022/03/04 07:19:51;;;;;;;45.00;22.30;;;-1.10;71.70;;;;;;4949445;28;20036;-76
2022/03/04 07:22:16;;;;;;;39.35;20.20;;;-1.00;71.80;;;;;;4962061;28;20439;-76
2022/03/04 07:24:42;;;;;;;46.13;21.40;;;-0.90;71.90;;;;;;4963800;28;20054;-77
2022/03/04 07:27:07;;;;;;;38.17;18.60;;;-0.80;71.80;;;;;;4963018;28;20055;-77
2022/03/04 07:29:33;;;;;;;39.20;20.27;;;-0.70;71.90;;;;;;4928351;28;20115;-77
2022/03/04 07:31:59;;;;;;;53.13;25.42;;;-0.70;71.90;;;;;;4954873;28;20110;-77
2022/03/04 07:34:24;;;;;;;44.53;22.40;;;-0.60;71.90;;;;;;4964262;28;20107;-77
2022/03/04 07:36:51;;;;;;;41.78;21.70;;;-0.50;71.90;;;;;;4942713;28;20071;-79
2022/03/04 07:39:16;;;;;;;49.58;22.50;;;-0.40;71.90;;;;;;4951576;28;20043;-77
2022/03/04 07:41:42;;;;;;;36.10;19.13;;;-0.30;72.00;;;;;;4967228;28;20050;-77
2022/03/04 07:44:07;;;;;;;40.28;19.25;;;-0.20;72.00;;;;;;4953451;28;20049;-77
2022/03/04 07:46:33;;;;;;;35.97;18.77;;;-0.10;72.00;;;;;;4922981;28;20433;-78
2022/03/04 07:48:59;;;;;;;40.28;19.95;;;0.00;72.10;;;;;;4946130;28;20102;-77
2022/03/04 07:51:25;;;;;;;41.50;20.90;;;0.10;72.10;;;;;;4969008;28;20054;-77
2022/03/04 07:53:50;;;;;;;46.17;20.83;;;0.20;72.10;;;;;;4963682;28;20061;-77
2022/03/04 07:56:16;;;;;;;47.80;22.10;;;0.40;72.20;;;;;;4948182;28;20106;-76
2022/03/04 07:58:41;;;;;;;49.25;22.15;;;0.50;72.10;;;;;;4971935;28;20035;-78
2022/03/04 08:01:08;;;;;;;50.25;22.48;;;0.60;72.10;;;;;;4953462;28;20811;-78
2022/03/04 08:03:34;;;;;;;50.45;21.42;;;0.80;72.10;;;;;;4952838;28;20126;-78
2022/03/04 08:06:00;;;;;;;47.40;22.05;;;0.90;72.00;;;;;;4971428;28;20042;-78
2022/03/04 08:08:25;;;;;;;42.28;20.58;;;1.00;72.00;;;;;;4965637;28;20231;-79
2022/03/04 08:10:51;;;;;;;45.90;22.50;;;1.10;71.90;;;;;;4971659;28;20031;-78
2022/03/04 08:13:17;;;;;;;46.22;21.95;;;1.30;72.00;;;;;;4978052;28;20035;-78
2022/03/04 08:15:43;;;;;;;47.60;23.40;;;1.40;71.90;;;;;;4968312;28;20043;-78
2022/03/04 08:18:09;;;;;;;54.33;24.15;;;1.60;71.80;;;;;;4950196;28;20095;-78
2022/03/04 08:20:34;;;;;;;46.47;21.67;;;1.80;71.80;;;;;;4975887;28;20039;-77
2022/03/04 08:23:00;;;;;;;44.72;21.35;;;1.90;71.70;;;;;;4977106;28;20392;-78
2022/03/04 08:25:25;;;;;;;47.78;22.00;;;2.00;71.60;;;;;;4960286;28;20057;-78
2022/03/04 08:27:51;;;;;;;49.70;21.65;;;2.20;71.60;;;;;;4973803;28;20094;-78
2022/03/04 08:30:16;;;;;;;52.10;22.98;;;2.30;71.40;;;;;;4961345;28;20053;-79
2022/03/04 08:32:42;;;;;;;49.45;22.73;;;2.40;71.20;;;;;;4942147;28;20063;-78
2022/03/04 08:35:08;;;;;;;45.47;21.45;;;2.50;71.00;;;;;;4953985;28;20045;-78
2022/03/04 08:37:34;;;;;;;54.45;21.95;;;2.70;70.90;;;;;;4949118;28;20042;-77
2022/03/04 08:40:00;;;;;;;39.90;20.42;;;2.90;70.80;;;;;;4934141;28;20043;-78
2022/03/04 08:42:26;;;;;;;48.33;21.33;;;3.00;70.70;;;;;;4961507;28;20050;-78
2022/03/04 08:44:52;;;;;;;40.05;19.45;;;3.20;70.70;;;;;;4943597;28;20043;-78
2022/03/04 08:47:18;;;;;;;47.70;20.95;;;3.30;70.40;;;;;;4963613;28;20946;-79
2022/03/04 08:49:44;;;;;;;44.75;20.40;;;3.50;70.30;;;;;;4964953;28;20460;-78
2022/03/04 08:52:09;;;;;;;46.25;20.40;;;3.70;70.10;;;;;;4956506;28;20038;-78
2022/03/04 08:54:35;;;;;;;46.50;20.48;;;3.80;70.00;;;;;;4955346;28;20043;-78
2022/03/04 08:57:00;;;;;;;47.08;20.73;;;3.90;69.70;;;;;;4959641;28;20101;-78
2022/03/04 08:59:26;;;;;;;45.45;20.70;;;4.10;69.60;;;;;;4940211;28;20047;-78
2022/03/04 09:01:51;;;;;;;42.85;19.20;;;4.30;69.50;;;;;;4951826;28;20043;-78
2022/03/04 09:04:17;;;;;;;39.25;19.75;;;4.40;69.30;;;;;;4943115;28;20039;-79
2022/03/04 09:06:43;;;;;;;44.30;19.88;;;4.50;69.30;;;;;;4963044;28;20066;-78
2022/03/04 09:09:09;;;;;;;42.70;20.55;;;4.70;69.20;;;;;;4932979;28;20054;-77
2022/03/04 09:11:35;;;;;;;43.33;20.13;;;4.90;68.90;;;;;;4956111;28;20039;-78
2022/03/04 09:14:01;;;;;;;44.58;20.10;;;5.00;68.60;;;;;;4961292;28;20087;-79
2022/03/04 09:16:28;;;;;;;43.47;20.50;;;5.20;68.40;;;;;;4955258;28;20046;-79
2022/03/04 09:18:54;;;;;;;42.08;19.35;;;5.30;68.20;;;;;;4961736;28;20043;-78
2022/03/04 09:21:19;;;;;;;39.58;20.20;;;5.50;68.10;;;;;;4952827;28;20043;-78
2022/03/04 09:23:45;;;;;;;43.35;20.75;;;5.60;67.90;;;;;;4947855;28;20035;-78
2022/03/04 09:26:11;;;;;;;41.58;20.70;;;5.70;67.60;;;;;;4965556;28;20090;-78
2022/03/04 09:28:37;;;;;;;38.33;19.58;;;5.90;67.20;;;;;;4953069;28;20035;-79
2022/03/04 09:31:03;;;;;;;39.78;19.17;;;6.00;67.00;;;;;;4953261;28;20055;-78
2022/03/04 09:33:28;;;;;;;36.53;17.75;;;6.10;66.90;;;;;;4958025;28;20046;-78
2022/03/04 09:35:54;;;;;;;37.38;19.08;;;6.30;66.80;;;;;;4955197;28;20032;-78
2022/03/04 09:38:19;;;;;;;38.00;18.83;;;6.50;66.80;;;;;;4954933;28;20031;-78
2022/03/04 09:40:45;;;;;;;39.17;19.00;;;6.70;66.50;;;;;;4956511;28;20039;-78
2022/03/04 09:43:11;;;;;;;35.80;18.48;;;6.90;66.10;;;;;;4953320;28;20548;-78
2022/03/04 09:45:36;;;;;;;39.80;20.65;;;7.10;65.70;;;;;;4953853;28;20123;-78
2022/03/04 09:48:03;;;;;;;36.38;18.27;;;7.20;65.30;;;;;;4933221;28;20098;-78
2022/03/04 09:50:28;;;;;;;37.53;17.77;;;7.30;65.00;;;;;;4950157;28;20043;-78
2022/03/04 09:52:54;;;;;;;37.30;18.58;;;7.50;65.00;;;;;;4963587;28;20031;-79
2022/03/04 09:55:19;;;;;;;34.25;18.05;;;7.70;64.80;;;;;;4951860;28;20065;-80
2022/03/04 09:57:45;;;;;;;39.80;19.15;;;7.80;64.40;;;;;;4958317;28;20665;-79
2022/03/04 10:00:11;;;;;;;37.42;19.02;;;8.00;64.20;;;;;;4951164;28;20522;-78
2022/03/04 10:02:37;;;;;;;39.33;18.88;;;8.20;64.00;;;;;;4956501;28;20047;-78
2022/03/04 10:05:03;;;;;;;35.88;17.02;;;8.40;63.60;;;;;;4966534;28;20042;-78
2022/03/04 10:07:39;;;;;;;32.33;15.60;;;8.50;63.30;;;;;;4956970;28;20697;-80
2022/03/04 10:10:10;;;;;;;36.45;17.15;;;8.70;63.10;;;;;;4943225;28;20051;-78
2022/03/04 10:12:45;;;;;;;31.73;15.60;;;8.90;62.90;;;;;;4955274;28;20050;-78
2022/03/04 10:15:11;;;;;;;35.95;17.02;;;9.10;62.50;;;;;;4943997;28;20051;-78
2022/03/04 10:17:37;;;;;;;39.03;18.85;;;9.20;62.50;;;;;;4950067;28;20056;-79
2022/03/04 10:20:12;;;;;;;33.88;16.77;;;9.40;62.30;;;;;;4947808;28;20668;-79
2022/03/04 10:22:42;;;;;;;32.22;17.38;;;9.60;61.80;;;;;;4952810;28;20046;-79
2022/03/04 10:25:24;;;;;;;31.27;15.48;;;9.70;61.60;;;;;;4944354;28;20039;-80
2022/03/04 10:27:50;;;;;;;31.25;16.13;;;10.00;61.40;;;;;;4949846;28;20036;-80
2022/03/04 10:30:16;;;;;;;30.23;15.38;;;10.20;61.00;;;;;;4966304;28;20046;-80
2022/03/04 10:32:42;;;;;;;31.20;16.05;;;10.20;60.20;;;;;;4917082;28;20120;-79
2022/03/04 10:35:11;;;;;;;32.17;17.13;;;10.30;60.00;;;;;;4951705;28;20039;-79
2022/03/04 10:37:56;;;;;;;33.40;15.90;;;10.40;59.80;;;;;;4955501;28;20067;-80
2022/03/04 10:40:26;;;;;;;31.67;16.00;;;10.60;59.30;;;;;;4966575;28;20047;-80
2022/03/04 10:42:58;;;;;;;35.33;17.25;;;10.80;59.20;;;;;;4955908;28;20055;-79
2022/03/04 10:46:08;;;;;;;33.80;16.40;;;10.80;58.50;;;;;;4955018;28;20046;-81
2022/03/04 10:48:34;;;;;;;26.30;14.85;;;10.80;58.10;;;;;;4941080;28;20565;-80
2022/03/04 10:51:04;;;;;;;32.28;16.45;;;11.00;58.60;;;;;;4952539;28;20066;-80
2022/03/04 10:53:30;;;;;;;35.35;18.10;;;11.20;58.40;;;;;;4942861;28;20093;-79
2022/03/04 10:56:04;;;;;;;32.97;15.82;;;11.30;57.90;;;;;;4928292;28;20051;-79
2022/03/04 10:58:34;;;;;;;33.08;17.38;;;11.50;57.90;;;;;;4958229;28;20102;-79
2022/03/04 11:01:08;;;;;;;29.90;15.27;;;11.70;57.60;;;;;;4933847;28;20050;-80
2022/03/04 11:03:34;;;;;;;34.80;17.15;;;11.90;57.40;;;;;;4954156;28;20039;-80
2022/03/04 11:06:07;;;;;;;26.85;14.60;;;12.10;57.30;;;;;;4942665;28;20042;-80
2022/03/04 11:08:33;;;;;;;24.98;14.00;;;12.30;56.60;;;;;;4936816;28;20070;-80
2022/03/04 11:10:59;;;;;;;24.15;13.35;;;12.40;56.70;;;;;;4929907;28;20044;-82
2022/03/04 11:13:25;;;;;;;30.45;15.80;;;12.60;56.50;;;;;;4953450;28;20036;-80
2022/03/04 11:15:52;;;;;;;24.77;14.10;;;12.80;56.10;;;;;;4957136;28;20034;-81
2022/03/04 11:18:19;;;;;;;26.38;13.98;;;12.80;55.70;;;;;;4949485;28;22939;-80
2022/03/04 11:20:48;;;;;;;27.33;15.10;;;12.90;55.30;;;;;;4941848;28;20416;-81
2022/03/04 11:23:25;;;;;;;30.70;15.45;;;13.00;55.10;;;;;;4950179;28;20099;-80
2022/03/04 11:25:56;;;;;;;24.60;14.40;;;13.20;54.40;;;;;;4932852;28;20134;-80
2022/03/04 11:28:24;;;;;;;30.92;16.15;;;13.30;54.60;;;;;;4955809;28;20046;-79
2022/03/04 11:30:51;;;;;;;21.58;12.95;;;13.50;54.30;;;;;;4955276;28;20031;-80
2022/03/04 11:33:21;;;;;;;25.27;14.45;;;13.60;54.20;;;;;;4917401;29;20036;-79
2022/03/04 11:36:13;;;;;;;26.67;14.05;;;13.80;53.90;;;;;;4939963;28;20126;-81
2022/03/04 11:38:47;;;;;;;25.02;14.07;;;14.00;53.20;;;;;;4956054;28;20038;-80
2022/03/04 11:41:24;;;;;;;22.90;12.85;;;14.20;52.70;;;;;;4956559;28;20128;-80
2022/03/04 11:43:57;;;;;;;20.92;11.90;;;14.30;53.10;;;;;;4951555;28;20043;-79
2022/03/04 11:46:46;;;;;;;24.40;13.23;;;14.50;53.20;;;;;;4936472;28;20050;-81
2022/03/04 11:49:34;;;;;;;24.25;13.27;;;14.70;52.90;;;;;;4932308;28;20845;-81
2022/03/04 11:52:11;;;;;;;24.00;13.70;;;14.90;51.70;;;;;;4946867;28;20476;-80
2022/03/04 11:54:37;;;;;;;21.30;11.88;;;15.00;51.40;;;;;;4943968;28;20019;-80
2022/03/04 11:57:23;;;;;;;14.65;8.82;;;15.10;51.80;;;;;;4940687;28;20050;-77
2022/03/04 11:59:58;;;;;;;13.05;7.25;;;15.20;50.40;;;;;;4921671;28;20290;-80
2022/03/04 12:02:28;;;;;;;10.38;6.32;;;15.40;50.60;;;;;;4907755;29;20104;-80
2022/03/04 12:05:21;;;;;;;10.63;6.50;;;15.50;50.40;;;;;;4921153;28;20031;-80
2022/03/04 12:08:05;;;;;;;8.88;5.88;;;15.50;49.40;;;;;;4935718;28;20051;-80
2022/03/04 12:10:35;;;;;;;11.60;6.07;;;15.60;49.50;;;;;;4934837;29;20043;-79
2022/03/04 12:13:18;;;;;;;8.77;6.05;;;15.50;49.10;;;;;;4892906;29;20055;-79
2022/03/04 12:16:03;;;;;;;9.02;4.97;;;15.20;48.10;;;;;;4930313;28;20074;-80
2022/03/04 12:18:40;;;;;;;8.80;5.22;;;15.00;47.00;;;;;;4931230;29;20070;-80
2022/03/04 12:21:22;;;;;;;8.00;4.78;;;14.90;47.30;;;;;;4913126;28;20076;-80
2022/03/04 12:23:49;;;;;;;7.45;4.47;;;14.90;47.70;;;;;;4915412;29;20070;-78
2022/03/04 12:26:34;;;;;;;12.10;6.55;;;15.00;48.30;;;;;;4910078;29;20043;-75
2022/03/04 12:29:02;;;;;;;11.43;6.65;;;15.20;48.10;;;;;;4923624;28;20536;-75
2022/03/04 12:31:29;;;;;;;8.98;5.75;;;15.40;47.70;;;;;;4927122;28;20047;-80